Time;durP1;ratioP1;P1;durP2;ratioP2;P2;SDS_P1;SDS_P2;PMS_P1;PMS_P2;Temp;Humidity;BMP_temperature;BMP_pressure;BME280_temperature;BME280_humidity;BME280_pressure;Samples;Min_cycle;Max_cycle;Signal;HPM_P1;HPM_P2
2023/05/09 00:01:04;;;;;;;;;;;;;;;18.61;100.00;100339.16;5092241;28;19958;-53
2023/05/09 00:03:29;;;;;;;;;;;;;;;18.61;100.00;100339.16;5090201;28;20383;-53
2023/05/09 00:05:55;;;;;;;;;;;;;;;18.62;100.00;100336.38;5086427;28;19926;-53
2023/05/09 00:08:20;;;;;;;;;;;;;;;18.61;100.00;100340.03;5091931;28;20378;-53
2023/05/09 00:10:46;;;;;;;;;;;;;;;18.62;100.00;100332.81;5091732;28;20002;-53
2023/05/09 00:13:12;;;;;;;;;;;;;;;18.63;100.00;100335.44;5090087;28;20003;-53
2023/05/09 00:15:38;;;;;;;;;;;;;;;18.61;100.00;100328.38;5090104;28;19916;-53
2023/05/09 00:18:03;;;;;;;;;;;;;;;18.62;100.00;100327.41;5091648;28;19987;-53
2023/05/09 00:20:28;;;;;;;;;;;;;;;18.61;100.00;100328.38;5090483;28;19920;-53
2023/05/09 00:22:54;;;;;;;;;;;;;;;18.60;100.00;100329.34;5091591;28;19951;-54
2023/05/09 00:25:19;;;;;;;;;;;;;;;18.62;100.00;100324.72;5090530;28;19993;-54
2023/05/09 00:27:44;;;;;;;;;;;;;;;18.58;100.00;100317.78;5090973;28;19930;-54
2023/05/09 00:30:10;;;;;;;;;;;;;;;18.57;100.00;100321.44;5091372;28;20001;-55
2023/05/09 00:32:35;;;;;;;;;;;;;;;18.58;100.00;100317.78;5091582;28;19920;-55
2023/05/09 00:35:01;;;;;;;;;;;;;;;18.61;100.00;100312.22;5090645;28;20015;-54
2023/05/09 00:37:27;;;;;;;;;;;;;;;18.64;100.00;100309.34;5091235;28;20380;-54
2023/05/09 00:39:53;;;;;;;;;;;;;;;18.63;100.00;100307.59;5090205;28;19923;-54
2023/05/09 00:42:18;;;;;;;;;;;;;;;18.61;100.00;100306.81;5090145;28;22079;-54
2023/05/09 00:44:43;;;;;;;;;;;;;;;18.61;100.00;100301.44;5090973;28;19916;-54
2023/05/09 00:47:08;;;;;;;;;;;;;;;18.59;100.00;100298.84;5090297;28;19916;-54
2023/05/09 00:49:34;;;;;;;;;;;;;;;18.59;100.00;100303.34;5081126;28;19916;-55
2023/05/09 00:52:01;;;;;;;;;;;;;;;18.61;100.00;100307.72;5070548;28;19917;-54
2023/05/09 00:54:26;;;;;;;;;;;;;;;18.60;100.00;100299.72;5070415;28;19951;-55
2023/05/09 00:56:51;;;;;;;;;;;;;;;18.58;100.00;100304.31;5074382;28;20709;-55
2023/05/09 00:59:17;;;;;;;;;;;;;;;18.55;100.00;100301.81;5072491;28;19916;-54
2023/05/09 01:01:43;;;;;;;;;;;;;;;18.55;100.00;100307.22;5090959;28;19923;-54
2023/05/09 01:04:09;;;;;;;;;;;;;;;18.56;100.00;100308.94;5089311;28;19924;-54
2023/05/09 01:06:44;;;;;;;;;;;;;;;18.57;100.00;100305.25;5090252;28;20354;-54
2023/05/09 01:09:23;;;;;;;;;;;;;;;18.59;100.00;100298.84;5089748;28;19920;-54
2023/05/09 01:11:54;;;;;;;;;;;;;;;18.58;100.00;100288.16;5070495;28;19970;-54
2023/05/09 01:14:28;;;;;;;;;;;;;;;18.58;100.00;100290.84;5070314;28;19923;-54
2023/05/09 01:17:09;;;;;;;;;;;;;;;18.59;100.00;100276.41;5070253;28;19975;-54
2023/05/09 01:19:47;;;;;;;;;;;;;;;18.58;100.00;100269.31;5088300;28;19989;-54
2023/05/09 01:22:13;;;;;;;;;;;;;;;18.55;100.00;100261.41;5089733;28;19923;-54
2023/05/09 01:24:46;;;;;;;;;;;;;;;18.52;100.00;100269.69;5088858;28;19951;-54
2023/05/09 01:27:24;;;;;;;;;;;;;;;18.49;100.00;100275.22;5088314;28;19998;-54
2023/05/09 01:29:55;;;;;;;;;;;;;;;18.45;100.00;100279.94;5090162;28;19956;-55
2023/05/09 01:32:23;;;;;;;;;;;;;;;18.43;100.00;100271.09;5089524;28;19923;-55
2023/05/09 01:34:50;;;;;;;;;;;;;;;18.40;100.00;100271.28;5090067;28;20010;-55
2023/05/09 01:37:18;;;;;;;;;;;;;;;18.40;100.00;100274.00;5090096;28;19926;-55
2023/05/09 01:39:50;;;;;;;;;;;;;;;18.37;100.00;100271.41;5090057;28;19916;-55
2023/05/09 01:42:17;;;;;;;;;;;;;;;18.31;100.00;100269.97;5089182;28;19920;-55
2023/05/09 01:44:45;;;;;;;;;;;;;;;18.27;100.00;100271.13;5090011;28;19916;-55
2023/05/09 01:47:10;;;;;;;;;;;;;;;18.23;100.00;100266.00;5089531;28;19916;-55
2023/05/09 01:49:37;;;;;;;;;;;;;;;18.20;100.00;100275.13;5088953;28;20450;-55
2023/05/09 01:52:04;;;;;;;;;;;;;;;18.13;100.00;100268.38;5089319;28;19934;-55
2023/05/09 01:54:30;;;;;;;;;;;;;;;18.08;100.00;100265.09;5090074;28;19916;-55
2023/05/09 01:56:55;;;;;;;;;;;;;;;18.04;100.00;100257.28;5089824;28;19973;-55
2023/05/09 01:59:21;;;;;;;;;;;;;;;18.00;100.00;100255.75;5089976;28;20022;-55
2023/05/09 02:01:47;;;;;;;;;;;;;;;17.98;100.00;100250.44;5089458;28;19923;-55
2023/05/09 02:04:14;;;;;;;;;;;;;;;17.99;100.00;100254.88;5090220;28;19912;-55
2023/05/09 02:06:40;;;;;;;;;;;;;;;17.98;100.00;100249.56;5090082;28;20019;-55
2023/05/09 02:09:05;;;;;;;;;;;;;;;17.98;100.00;100247.75;5089658;28;20006;-55
2023/05/09 02:11:31;;;;;;;;;;;;;;;17.98;100.00;100247.75;5081809;28;20398;-55
2023/05/09 02:13:56;;;;;;;;;;;;;;;17.94;100.00;100246.19;5072367;28;19921;-55
2023/05/09 02:16:21;;;;;;;;;;;;;;;17.94;100.00;100245.34;5079780;28;20387;-55
2023/05/09 02:18:47;;;;;;;;;;;;;;;17.96;100.00;100252.34;5089986;28;19961;-55
2023/05/09 02:21:12;;;;;;;;;;;;;;;17.97;100.00;100258.63;5088457;28;19944;-55
2023/05/09 02:23:38;;;;;;;;;;;;;;;17.97;100.00;100253.22;5088914;28;19942;-55
2023/05/09 02:26:03;;;;;;;;;;;;;;;17.97;100.00;100256.78;5089805;28;20430;-55
2023/05/09 02:28:29;;;;;;;;;;;;;;;17.98;100.00;100253.13;5089445;28;19938;-55
2023/05/09 02:30:55;;;;;;;;;;;;;;;17.97;100.00;100251.38;5089084;28;19916;-55
2023/05/09 02:33:21;;;;;;;;;;;;;;;17.97;100.00;100256.78;5087571;28;20358;-55
2023/05/09 02:35:47;;;;;;;;;;;;;;;17.99;100.00;100254.88;5088629;28;19916;-55
2023/05/09 02:38:13;;;;;;;;;;;;;;;18.05;100.00;100257.22;5088713;28;20360;-55
2023/05/09 02:40:38;;;;;;;;;;;;;;;18.08;100.00;100258.84;5092248;28;20418;-55
2023/05/09 02:43:04;;;;;;;;;;;;;;;18.07;100.00;100260.66;5092673;28;20038;-55
2023/05/09 02:45:30;;;;;;;;;;;;;;;18.10;100.00;100256.94;5093270;28;19915;-55
2023/05/09 02:47:55;;;;;;;;;;;;;;;18.10;100.00;100246.16;5092328;28;19937;-55
2023/05/09 02:50:20;;;;;;;;;;;;;;;18.10;100.00;100238.94;5093186;28;19923;-55
2023/05/09 02:52:46;;;;;;;;;;;;;;;18.14;100.00;100237.81;5091996;28;19920;-55
2023/05/09 02:55:11;;;;;;;;;;;;;;;18.15;100.00;100241.38;5093020;28;19916;-55
2023/05/09 02:57:36;;;;;;;;;;;;;;;18.10;100.00;100241.63;5089074;28;19951;-55
2023/05/09 03:00:02;;;;;;;;;;;;;;;18.10;100.00;100241.63;5091621;28;19924;-55
2023/05/09 03:02:27;;;;;;;;;;;;;;;18.09;100.00;100229.13;5092485;28;19942;-55
2023/05/09 03:04:53;;;;;;;;;;;;;;;18.08;100.00;100227.41;5091465;28;19934;-55
2023/05/09 03:07:18;;;;;;;;;;;;;;;18.12;100.00;100234.31;5092101;28;19916;-55
2023/05/09 03:09:43;;;;;;;;;;;;;;;18.10;100.00;100233.53;5092012;28;19947;-55
2023/05/09 03:12:08;;;;;;;;;;;;;;;18.16;100.00;100232.31;5090463;28;19927;-55
2023/05/09 03:14:34;;;;;;;;;;;;;;;18.17;100.00;100224.16;5073022;28;20015;-55
2023/05/09 03:16:59;;;;;;;;;;;;;;;18.20;100.00;100210.50;5072366;28;19920;-55
2023/05/09 03:19:24;;;;;;;;;;;;;;;18.23;100.00;100215.72;5074890;28;19926;-54
2023/05/09 03:21:49;;;;;;;;;;;;;;;18.23;100.00;100214.84;5092069;28;19969;-54
2023/05/09 03:24:15;;;;;;;;;;;;;;;18.27;100.00;100206.47;5093036;28;20360;-55
2023/05/09 03:26:40;;;;;;;;;;;;;;;18.28;100.00;100208.22;5091949;28;19927;-55
2023/05/09 03:29:05;;;;;;;;;;;;;;;18.30;100.00;100217.06;5092692;28;19916;-54
2023/05/09 03:31:31;;;;;;;;;;;;;;;18.27;100.00;100211.88;5091742;28;19963;-55
2023/05/09 03:33:56;;;;;;;;;;;;;;;18.24;100.00;100222.84;5092447;28;19923;-54
2023/05/09 03:36:22;;;;;;;;;;;;;;;18.24;100.00;100216.56;5092185;28;19923;-55
2023/05/09 03:38:47;;;;;;;;;;;;;;;18.28;100.00;100210.94;5092378;28;19923;-55
2023/05/09 03:41:16;;;;;;;;;;;;;;;18.32;100.00;100215.16;5091163;28;19919;-55
2023/05/09 03:43:41;;;;;;;;;;;;;;;18.37;100.00;100213.03;5092477;28;20272;-55
2023/05/09 03:46:07;;;;;;;;;;;;;;;18.37;100.00;100209.47;5091444;28;19923;-55
2023/05/09 03:48:32;;;;;;;;;;;;;;;18.36;100.00;100211.31;5092134;28;19915;-55
2023/05/09 03:50:57;;;;;;;;;;;;;;;18.36;100.00;100210.44;5091689;28;19916;-55
2023/05/09 03:53:23;;;;;;;;;;;;;;;18.36;100.00;100213.13;5091248;28;19920;-55
2023/05/09 03:55:48;;;;;;;;;;;;;;;18.38;100.00;100214.75;5091941;28;19923;-55
2023/05/09 03:58:13;;;;;;;;;;;;;;;18.43;100.00;100213.66;5091404;28;20627;-55
2023/05/09 04:00:39;;;;;;;;;;;;;;;18.43;100.00;100210.97;5092045;28;19920;-55
2023/05/09 04:03:05;;;;;;;;;;;;;;;18.43;100.00;100221.75;5092259;28;19916;-55
2023/05/09 04:05:32;;;;;;;;;;;;;;;18.38;100.00;100214.75;5090704;28;20402;-55
2023/05/09 04:07:57;;;;;;;;;;;;;;;18.37;100.00;100212.16;5091216;28;19916;-55
2023/05/09 04:10:24;;;;;;;;;;;;;;;18.37;100.00;100210.34;5089317;28;19969;-55
2023/05/09 04:12:49;;;;;;;;;;;;;;;18.40;100.00;100205.78;5089503;28;19924;-55
2023/05/09 04:15:14;;;;;;;;;;;;;;;18.37;100.00;100213.03;5091516;28;19931;-55
2023/05/09 04:17:40;;;;;;;;;;;;;;;18.42;100.00;100210.09;5090704;28;19924;-55
2023/05/09 04:20:07;;;;;;;;;;;;;;;18.45;100.00;100214.44;5088053;28;19924;-55
2023/05/09 04:22:32;;;;;;;;;;;;;;;18.46;100.00;100216.16;5091745;28;20030;-55
2023/05/09 04:24:57;;;;;;;;;;;;;;;18.46;100.00;100224.25;5091079;28;20405;-55
2023/05/09 04:27:22;;;;;;;;;;;;;;;18.49;100.00;100216.84;5090030;28;19920;-55
2023/05/09 04:29:48;;;;;;;;;;;;;;;18.52;100.00;100210.41;5091395;28;19916;-55
2023/05/09 04:32:13;;;;;;;;;;;;;;;18.55;100.00;100210.22;5090600;28;20391;-55
2023/05/09 04:34:38;;;;;;;;;;;;;;;18.57;100.00;100213.66;5091375;28;20015;-55
2023/05/09 04:37:04;;;;;;;;;;;;;;;18.57;100.00;100219.94;5091219;28;20326;-55
2023/05/09 04:39:29;;;;;;;;;;;;;;;18.61;100.00;100209.81;5090704;28;20026;-55
2023/05/09 04:41:54;;;;;;;;;;;;;;;18.66;100.00;100213.09;5091183;28;19924;-55
2023/05/09 04:44:20;;;;;;;;;;;;;;;18.68;100.00;100205.78;5089931;28;19916;-55
2023/05/09 04:46:45;;;;;;;;;;;;;;;18.74;100.00;100200.88;5090916;28;19923;-55
2023/05/09 04:49:11;;;;;;;;;;;;;;;18.79;100.00;100198.78;5090107;28;19999;-55
2023/05/09 04:51:36;;;;;;;;;;;;;;;18.86;100.00;100200.09;5090561;28;19956;-55
2023/05/09 04:54:02;;;;;;;;;;;;;;;18.93;100.00;100200.59;5072570;28;20623;-55
2023/05/09 04:56:27;;;;;;;;;;;;;;;18.97;100.00;100202.13;5089779;28;19920;-55
2023/05/09 04:58:53;;;;;;;;;;;;;;;18.99;100.00;100197.50;5090998;28;19920;-55
2023/05/09 05:01:18;;;;;;;;;;;;;;;19.01;100.00;100188.34;5089121;28;19973;-55
2023/05/09 05:03:44;;;;;;;;;;;;;;;19.08;100.00;100184.28;5090016;28;19916;-55
2023/05/09 05:06:10;;;;;;;;;;;;;;;19.20;100.00;100188.03;5084653;28;19944;-55
2023/05/09 05:08:35;;;;;;;;;;;;;;;19.30;100.00;100184.66;5090155;28;19971;-55
2023/05/09 05:11:00;;;;;;;;;;;;;;;19.38;100.00;100186.84;5090041;28;20345;-55
2023/05/09 05:13:25;;;;;;;;;;;;;;;19.29;100.00;100192.88;5088767;28;19920;-55
2023/05/09 05:15:51;;;;;;;;;;;;;;;19.28;100.00;100188.38;5088012;28;20015;-55
2023/05/09 05:18:16;;;;;;;;;;;;;;;19.31;100.00;100182.81;5079090;28;20378;-55
2023/05/09 05:20:41;;;;;;;;;;;;;;;19.29;100.00;100182.06;5071522;28;19928;-55
2023/05/09 05:23:07;;;;;;;;;;;;;;;19.35;100.00;100185.25;5090043;28;19951;-55
2023/05/09 05:25:32;;;;;;;;;;;;;;;19.39;100.00;100189.44;5090501;28;20007;-55
2023/05/09 05:27:58;;;;;;;;;;;;;;;19.39;100.00;100184.03;5090255;28;19919;-55
2023/05/09 05:30:23;;;;;;;;;;;;;;;19.42;100.00;100180.31;5088992;28;19920;-55
2023/05/09 05:32:48;;;;;;;;;;;;;;;19.43;100.00;100173.94;5089595;28;19995;-55
2023/05/09 05:35:14;;;;;;;;;;;;;;;19.42;100.00;100172.22;5089502;28;19916;-55
2023/05/09 05:37:39;;;;;;;;;;;;;;;19.39;100.00;100172.38;5089438;28;20370;-55
2023/05/09 05:40:05;;;;;;;;;;;;;;;19.33;100.00;100176.38;5087523;28;19927;-54
2023/05/09 05:42:31;;;;;;;;;;;;;;;19.37;100.00;100182.44;5087787;28;19920;-55
2023/05/09 05:44:56;;;;;;;;;;;;;;;19.41;100.00;100183.94;5084314;28;19924;-55
2023/05/09 05:47:21;;;;;;;;;;;;;;;19.39;100.00;100183.16;5081030;28;19916;-55
2023/05/09 05:49:46;;;;;;;;;;;;;;;19.40;100.00;100182.22;5080731;28;19966;-55
2023/05/09 05:52:12;;;;;;;;;;;;;;;19.39;100.00;100173.25;5088022;28;20648;-55
2023/05/09 05:54:37;;;;;;;;;;;;;;;19.41;100.00;100176.72;5083465;28;19922;-55
2023/05/09 05:57:02;;;;;;;;;;;;;;;19.40;100.00;100174.13;5079080;28;20299;-55
2023/05/09 05:59:27;;;;;;;;;;;;;;;19.43;100.00;100171.22;5086039;28;20026;-54
2023/05/09 06:01:53;;;;;;;;;;;;;;;19.46;100.00;100162.91;5083523;28;20311;-55
2023/05/09 06:04:18;;;;;;;;;;;;;;;19.51;100.00;100166.19;5088950;28;20014;-55
2023/05/09 06:06:44;;;;;;;;;;;;;;;19.47;100.00;100164.69;5088862;28;19916;-55
2023/05/09 06:09:09;;;;;;;;;;;;;;;19.44;100.00;100170.25;5084828;28;20033;-55
2023/05/09 06:11:35;;;;;;;;;;;;;;;19.48;100.00;100161.88;5089653;28;19941;-55
2023/05/09 06:14:00;;;;;;;;;;;;;;;19.51;100.00;100160.78;5088878;28;19962;-56
2023/05/09 06:16:25;;;;;;;;;;;;;;;19.57;100.00;100160.41;5084500;28;20013;-54
2023/05/09 06:18:50;;;;;;;;;;;;;;;19.58;100.00;100164.81;5093555;28;20382;-54
2023/05/09 06:21:16;;;;;;;;;;;;;;;19.60;100.00;100154.78;5093322;28;20052;-54
2023/05/09 06:23:41;;;;;;;;;;;;;;;19.62;100.00;100161.78;5093291;28;19974;-56
2023/05/09 06:26:06;;;;;;;;;;;;;;;19.67;100.00;100151.56;5094073;28;19924;-56
2023/05/09 06:28:31;;;;;;;;;;;;;;;19.74;100.00;100146.59;5092974;28;19970;-55
2023/05/09 06:30:57;;;;;;;;;;;;;;;19.82;100.00;100141.56;5081951;28;19925;-56
2023/05/09 06:33:22;;;;;;;;;;;;;;;19.92;100.00;100139.13;5078588;28;20399;-53
2023/05/09 06:35:47;;;;;;;;;;;;;;;20.01;100.00;100149.25;5079732;28;19923;-54
2023/05/09 06:38:13;;;;;;;;;;;;;;;19.97;100.00;100154.00;5074407;28;19924;-54
2023/05/09 06:40:38;;;;;;;;;;;;;;;19.93;100.00;100140.81;5090657;28;19939;-55
2023/05/09 06:43:03;;;;;;;;;;;;;;;20.02;100.00;100138.34;5092838;28;19920;-56
2023/05/09 06:45:29;;;;;;;;;;;;;;;20.19;100.00;100140.78;5088946;28;19923;-54
2023/05/09 06:47:54;;;;;;;;;;;;;;;20.42;100.00;100142.75;5086834;28;19912;-55
2023/05/09 06:50:20;;;;;;;;;;;;;;;20.63;100.00;100127.69;5090006;28;19920;-55
2023/05/09 06:52:45;;;;;;;;;;;;;;;20.81;100.00;100123.66;5088001;28;19924;-55
2023/05/09 06:55:10;;;;;;;;;;;;;;;20.91;100.00;100111.19;5093034;28;20637;-54
2023/05/09 06:57:37;;;;;;;;;;;;;;;20.83;100.00;100110.88;5093248;28;19923;-55
2023/05/09 07:00:03;;;;;;;;;;;;;;;20.77;100.00;100114.03;5091698;28;19923;-54
2023/05/09 07:02:28;;;;;;;;;;;;;;;20.81;100.00;100112.84;5092222;28;20013;-55
2023/05/09 07:04:54;;;;;;;;;;;;;;;20.85;100.00;100116.19;5092215;28;19973;-55
2023/05/09 07:07:19;;;;;;;;;;;;;;;20.79;99.50;100108.50;5090926;28;19916;-55
2023/05/09 07:09:44;;;;;;;;;;;;;;;20.95;99.57;100111.84;5082796;28;20015;-55
2023/05/09 07:12:10;;;;;;;;;;;;;;;21.01;99.35;100097.88;5074716;28;20444;-55
2023/05/09 07:14:35;;;;;;;;;;;;;;;20.95;98.38;100101.84;5081674;28;19924;-55
2023/05/09 07:17:00;;;;;;;;;;;;;;;21.07;98.26;100091.16;5072948;28;20360;-55
2023/05/09 07:19:25;;;;;;;;;;;;;;;21.01;95.95;100086.19;5074354;28;20015;-55
2023/05/09 07:21:51;;;;;;;;;;;;;;;21.02;95.30;100086.06;5079814;28;19916;-55
2023/05/09 07:24:16;;;;;;;;;;;;;;;21.04;94.91;100083.28;5073651;28;19916;-55
2023/05/09 07:26:41;;;;;;;;;;;;;;;21.03;95.60;100077.00;5090194;28;20365;-55
2023/05/09 07:29:07;;;;;;;;;;;;;;;20.83;94.14;100073.03;5092636;28;19923;-55
2023/05/09 07:31:32;;;;;;;;;;;;;;;20.66;94.37;100070.69;5091918;28;19927;-55
2023/05/09 07:33:57;;;;;;;;;;;;;;;20.75;95.07;100067.34;5091911;28;19924;-55
2023/05/09 07:36:22;;;;;;;;;;;;;;;20.90;95.14;100060.75;5090771;28;19919;-55
2023/05/09 07:38:49;;;;;;;;;;;;;;;21.03;94.78;100065.31;5082302;28;19921;-55
2023/05/09 07:41:15;;;;;;;;;;;;;;;20.88;92.98;100057.34;5091802;28;19920;-55
2023/05/09 07:43:40;;;;;;;;;;;;;;;20.97;93.47;100050.41;5092547;28;19919;-55
2023/05/09 07:46:05;;;;;;;;;;;;;;;21.16;92.29;100055.28;5082665;28;19924;-55
2023/05/09 07:48:30;;;;;;;;;;;;;;;22.10;92.30;100049.72;5081798;28;19935;-55
2023/05/09 07:50:57;;;;;;;;;;;;;;;22.95;89.49;100049.06;5072192;28;19939;-55
2023/05/09 07:53:22;;;;;;;;;;;;;;;23.52;83.78;100043.34;5081441;28;19915;-55
2023/05/09 07:55:49;;;;;;;;;;;;;;;23.66;80.90;100040.34;5091116;28;19923;-55
2023/05/09 07:58:14;;;;;;;;;;;;;;;24.07;80.06;100037.63;5089824;28;19931;-55
2023/05/09 08:00:39;;;;;;;;;;;;;;;24.09;77.28;100033.78;5089655;28;20403;-55
2023/05/09 08:03:05;;;;;;;;;;;;;;;24.18;77.54;100032.09;5091175;28;19916;-55
2023/05/09 08:05:30;;;;;;;;;;;;;;;24.07;76.91;100029.47;5091190;28;20249;-55
2023/05/09 08:07:56;;;;;;;;;;;;;;;23.92;75.62;100028.06;5092130;28;20003;-55
2023/05/09 08:10:22;;;;;;;;;;;;;;;24.31;77.39;100028.19;5091132;28;20350;-55
2023/05/09 08:12:47;;;;;;;;;;;;;;;24.72;75.76;100015.44;5090796;28;19920;-56
2023/05/09 08:15:13;;;;;;;;;;;;;;;24.79;73.21;100016.63;5074100;28;19999;-55
2023/05/09 08:17:38;;;;;;;;;;;;;;;24.80;73.61;100008.31;5091316;28;20379;-55
2023/05/09 08:20:04;;;;;;;;;;;;;;;25.17;71.69;100006.63;5091235;28;19943;-55
2023/05/09 08:22:29;;;;;;;;;;;;;;;25.26;68.03;100002.22;5090573;28;19916;-55
2023/05/09 08:24:55;;;;;;;;;;;;;;;25.25;67.37;100001.38;5089974;28;20447;-56
2023/05/09 08:27:20;;;;;;;;;;;;;;;25.15;67.82;100000.50;5090791;28;19923;-55
2023/05/09 08:29:45;;;;;;;;;;;;;;;24.65;68.75;100002.38;5090583;28;19920;-55
2023/05/09 08:32:11;;;;;;;;;;;;;;;24.32;70.51;99996.38;5089515;28;19966;-55
2023/05/09 08:34:36;;;;;;;;;;;;;;;24.06;72.21;99986.97;5090871;28;19916;-55
2023/05/09 08:37:02;;;;;;;;;;;;;;;23.96;72.36;99988.75;5090210;28;19920;-55
2023/05/09 08:39:28;;;;;;;;;;;;;;;24.08;74.61;99983.16;5086514;28;20407;-55
2023/05/09 08:41:58;;;;;;;;;;;;;;;24.08;74.93;99977.72;5091148;28;20006;-55
2023/05/09 08:44:24;;;;;;;;;;;;;;;24.07;75.51;99980.56;5091241;28;19916;-56
2023/05/09 08:46:53;;;;;;;;;;;;;;;23.77;74.07;99972.34;5090850;28;19970;-56
2023/05/09 08:49:22;;;;;;;;;;;;;;;23.63;74.68;99972.66;5091192;28;20294;-56
2023/05/09 08:51:47;;;;;;;;;;;;;;;23.77;76.43;99956.06;5090119;28;20363;-55
2023/05/09 08:54:13;;;;;;;;;;;;;;;23.79;74.84;99954.06;5090944;28;19919;-55
2023/05/09 08:56:38;;;;;;;;;;;;;;;23.96;74.58;99962.44;5091104;28;19924;-55
2023/05/09 08:59:04;;;;;;;;;;;;;;;24.53;73.66;99959.09;5090607;28;19920;-55
2023/05/09 09:01:31;;;;;;;;;;;;;;;25.28;72.52;99956.63;5091072;28;19916;-55
2023/05/09 09:03:57;;;;;;;;;;;;;;;25.92;69.41;99953.13;5090269;28;19927;-55
2023/05/09 09:06:24;;;;;;;;;;;;;;;25.76;65.00;99950.16;5090716;28;19920;-55
2023/05/09 09:08:50;;;;;;;;;;;;;;;25.80;65.20;99946.13;5089099;28;19916;-55
2023/05/09 09:11:16;;;;;;;;;;;;;;;25.89;64.24;99944.38;5070135;28;19923;-55
2023/05/09 09:13:42;;;;;;;;;;;;;;;26.05;64.74;99950.09;5069730;28;19916;-55
2023/05/09 09:16:15;;;;;;;;;;;;;;;26.19;63.73;99935.97;5080438;28;20292;-55
2023/05/09 09:18:41;;;;;;;;;;;;;;;25.92;61.73;99934.03;5090521;28;19916;-55
2023/05/09 09:21:08;;;;;;;;;;;;;;;25.74;63.31;99926.78;5090391;28;20334;-55
2023/05/09 09:23:36;;;;;;;;;;;;;;;25.43;63.53;99930.72;5091058;28;19916;-55
2023/05/09 09:26:03;;;;;;;;;;;;;;;24.98;69.57;99924.97;5090769;28;20638;-55
2023/05/09 09:28:29;;;;;;;;;;;;;;;24.87;71.00;99916.09;5089479;28;19926;-55
2023/05/09 09:30:54;;;;;;;;;;;;;;;24.85;72.18;99913.53;5090523;28;20375;-55
2023/05/09 09:33:23;;;;;;;;;;;;;;;24.98;70.91;99914.09;5089440;28;19916;-55
2023/05/09 09:35:50;;;;;;;;;;;;;;;25.05;70.97;99906.22;5090251;28;19989;-55
2023/05/09 09:38:23;;;;;;;;;;;;;;;25.28;69.40;99905.78;5090249;28;19916;-55
2023/05/09 09:40:57;;;;;;;;;;;;;;;25.40;68.85;99898.34;5090126;28;19927;-55
2023/05/09 09:43:29;;;;;;;;;;;;;;;25.05;62.25;99888.03;5089419;28;19919;-55
2023/05/09 09:45:56;;;;;;;;;;;;;;;25.29;67.84;99884.81;5090248;28;19923;-55
2023/05/09 09:48:25;;;;;;;;;;;;;;;25.43;65.43;99887.13;5088623;28;19920;-55
2023/05/09 09:50:52;;;;;;;;;;;;;;;25.83;63.22;99879.56;5090275;28;19920;-56
2023/05/09 09:53:18;;;;;;;;;;;;;;;26.48;63.07;99883.97;5088741;28;19957;-55
2023/05/09 09:55:50;;;;;;;;;;;;;;;26.95;60.56;99874.59;5089181;28;20015;-55
2023/05/09 09:58:20;;;;;;;;;;;;;;;26.99;56.98;99874.13;5087973;28;20142;-55
2023/05/09 10:00:46;;;;;;;;;;;;;;;26.94;56.97;99865.53;5071507;28;19972;-55
2023/05/09 10:03:15;;;;;;;;;;;;;;;27.24;60.96;99850.59;5089394;28;19923;-55
2023/05/09 10:05:40;;;;;;;;;;;;;;;27.17;59.34;99852.25;5083635;28;19927;-56
2023/05/09 10:08:08;;;;;;;;;;;;;;;26.88;60.19;99852.53;5069915;28;19916;-55
2023/05/09 10:10:35;;;;;;;;;;;;;;;27.23;63.56;99851.63;5085142;28;19915;-55
2023/05/09 10:13:06;;;;;;;;;;;;;;;27.83;60.16;99844.31;5088031;28;19923;-56
2023/05/09 10:15:32;;;;;;;;;;;;;;;27.49;58.03;99840.72;5088481;28;20024;-56
2023/05/09 10:17:59;;;;;;;;;;;;;;;27.25;59.08;99833.19;5088963;28;20668;-56
2023/05/09 10:20:26;;;;;;;;;;;;;;;27.10;59.58;99830.19;5087271;28;19938;-56
2023/05/09 10:23:10;;;;;;;;;;;;;;;26.87;60.73;99831.69;5088756;28;19946;-56
2023/05/09 10:25:36;;;;;;;;;;;;;;;26.89;60.12;99824.22;5088461;28;19916;-55
2023/05/09 10:28:02;;;;;;;;;;;;;;;26.91;59.13;99824.03;5089680;28;19920;-56
2023/05/09 10:30:33;;;;;;;;;;;;;;;26.40;59.77;99829.31;5089432;28;19916;-56
2023/05/09 10:33:03;;;;;;;;;;;;;;;26.36;61.35;99817.03;5087282;28;20359;-56
2023/05/09 10:35:31;;;;;;;;;;;;;;;26.28;61.74;99825.09;5088838;28;19927;-56
2023/05/09 10:37:58;;;;;;;;;;;;;;;26.12;63.43;99808.56;5087657;28;19930;-56
2023/05/09 10:40:24;;;;;;;;;;;;;;;25.61;64.89;99815.41;5087976;28;19924;-55
2023/05/09 10:42:50;;;;;;;;;;;;;;;25.21;66.11;99805.75;5087625;28;20356;-55
2023/05/09 10:45:15;;;;;;;;;;;;;;;25.31;66.35;99801.13;5089059;28;19952;-55
2023/05/09 10:47:42;;;;;;;;;;;;;;;25.23;64.07;99807.31;5089870;28;19939;-55
2023/05/09 10:50:09;;;;;;;;;;;;;;;25.54;66.20;99797.06;5089073;28;20363;-55
2023/05/09 10:52:54;;;;;;;;;;;;;;;25.74;63.98;99796.84;5089449;28;19916;-56
2023/05/09 10:55:19;;;;;;;;;;;;;;;25.53;63.14;99796.22;5088789;28;20000;-56
2023/05/09 10:57:51;;;;;;;;;;;;;;;25.49;63.81;99797.53;5089441;28;20439;-55
2023/05/09 11:00:23;;;;;;;;;;;;;;;25.48;63.48;99782.19;5089922;28;19920;-55
2023/05/09 11:03:09;;;;;;;;;;;;;;;25.37;60.76;99778.81;5093243;28;19916;-55
2023/05/09 11:05:38;;;;;;;;;;;;;;;25.63;60.33;99777.94;5092596;28;20378;-56
2023/05/09 11:08:22;;;;;;;;;;;;;;;25.81;59.15;99772.56;5073455;28;19923;-55
2023/05/09 11:10:48;;;;;;;;;;;;;;;26.12;57.90;99764.94;5090610;28;19922;-56
2023/05/09 11:13:17;;;;;;;;;;;;;;;26.09;56.83;99763.38;5091725;28;19920;-55
2023/05/09 11:16:00;;;;;;;;;;;;;;;25.83;57.74;99755.03;5090238;28;19927;-56
2023/05/09 11:18:26;;;;;;;;;;;;;;;25.71;58.09;99747.22;5075480;28;19925;-55
2023/05/09 11:20:51;;;;;;;;;;;;;;;25.47;59.26;99742.31;5080887;28;20385;-55
2023/05/09 11:23:20;;;;;;;;;;;;;;;25.30;61.69;99742.25;5093132;28;19916;-55
2023/05/09 11:25:46;;;;;;;;;;;;;;;25.22;63.42;99745.69;5092965;28;20487;-55
2023/05/09 11:28:24;;;;;;;;;;;;;;;24.99;63.01;99736.16;5093114;28;19927;-55
2023/05/09 11:30:49;;;;;;;;;;;;;;;25.06;63.94;99734.56;5092457;28;20310;-55
2023/05/09 11:33:22;;;;;;;;;;;;;;;25.26;63.87;99738.94;5093135;28;19912;-55
2023/05/09 11:36:08;;;;;;;;;;;;;;;25.11;63.24;99732.28;5092939;28;20317;-55
2023/05/09 11:38:40;;;;;;;;;;;;;;;25.11;61.39;99720.50;5091756;28;19919;-55
2023/05/09 11:41:06;;;;;;;;;;;;;;;25.22;62.94;99717.63;5092474;28;20369;-55
2023/05/09 11:43:31;;;;;;;;;;;;;;;25.52;63.89;99711.91;5092389;28;19919;-55
2023/05/09 11:45:58;;;;;;;;;;;;;;;25.79;61.41;99712.75;5091278;28;19973;-55
2023/05/09 11:48:23;;;;;;;;;;;;;;;26.21;60.54;99698.56;5091667;28;19916;-56
2023/05/09 11:50:48;;;;;;;;;;;;;;;26.43;60.10;99698.06;5091373;28;19940;-56
2023/05/09 11:53:14;;;;;;;;;;;;;;;26.41;58.66;99689.22;5092211;28;19947;-55
2023/05/09 11:55:40;;;;;;;;;;;;;;;26.34;56.61;99693.56;5092222;28;19916;-55
2023/05/09 11:58:06;;;;;;;;;;;;;;;26.36;55.65;99688.81;5074161;28;19924;-55
2023/05/09 12:00:31;;;;;;;;;;;;;;;26.30;56.61;99684.84;5062787;28;20541;-55
2023/05/09 12:02:56;;;;;;;;;;;;;;;26.45;56.66;99679.69;5058454;28;19932;-55
2023/05/09 12:05:22;;;;;;;;;;;;;;;26.67;56.37;99680.03;5070924;28;19920;-55
2023/05/09 12:07:47;;;;;;;;;;;;;;;26.56;55.53;99673.97;5071709;28;20022;-55
2023/05/09 12:10:20;;;;;;;;;;;;;;;26.77;55.08;99674.50;5059733;28;20391;-56
2023/05/09 12:12:49;;;;;;;;;;;;;;;27.08;55.41;99673.81;5074026;28;19916;-55
2023/05/09 12:15:15;;;;;;;;;;;;;;;27.11;56.25;99661.72;5092223;28;20459;-55
2023/05/09 12:17:41;;;;;;;;;;;;;;;27.21;54.08;99657.84;5077547;28;20042;-56
2023/05/09 12:20:07;;;;;;;;;;;;;;;27.40;54.53;99654.03;5073866;28;20641;-55
2023/05/09 12:22:33;;;;;;;;;;;;;;;26.88;51.64;99653.25;5070161;28;19927;-55
2023/05/09 12:25:00;;;;;;;;;;;;;;;26.35;55.11;99647.03;5070627;28;19921;-56
2023/05/09 12:27:27;;;;;;;;;;;;;;;26.06;55.00;99645.59;5073168;28;19916;-55
2023/05/09 12:29:52;;;;;;;;;;;;;;;26.55;56.13;99640.38;5069435;28;20668;-56